Time;durP1;ratioP1;P1;durP2;ratioP2;P2;SDS_P1;SDS_P2;PMS_P1;PMS_P2;Temp;Humidity;BMP_temperature;BMP_pressure;BME280_temperature;BME280_humidity;BME280_pressure;Samples;Min_cycle;Max_cycle;Signal;HPM_P1;HPM_P2
2023/06/11 00:01:26;;;;;;;8.43;7.63;;;;;;;20.25;75.14;156570.00;5063813;28;20458;-88
2023/06/11 00:03:53;;;;;;;8.90;8.07;;;;;;;20.28;75.04;156576.50;5063118;28;20434;-88
2023/06/11 00:06:22;;;;;;;8.50;7.00;;;;;;;20.22;75.47;156560.81;5045105;28;20439;-87
2023/06/11 00:08:48;;;;;;;8.70;7.80;;;;;;;20.17;75.71;156547.75;5045238;28;20558;-88
2023/06/11 00:11:15;;;;;;;8.37;7.57;;;;;;;20.13;76.06;156538.63;5046495;28;20458;-88
2023/06/11 00:13:42;;;;;;;9.20;8.40;;;;;;;20.15;76.19;156543.81;5063667;28;20466;-87
2023/06/11 00:16:11;;;;;;;8.37;7.57;;;;;;;20.18;76.30;156550.34;5041369;28;20894;-87
2023/06/11 00:18:40;;;;;;;10.30;8.37;;;;;;;20.09;76.65;156528.22;5060390;28;20459;-87
2023/06/11 00:21:07;;;;;;;8.37;7.57;;;;;;;19.99;77.39;156503.41;5046199;28;20470;-87
2023/06/11 00:23:36;;;;;;;8.10;7.30;;;;;;;19.92;78.02;156483.84;5044093;28;20443;-87
2023/06/11 00:26:04;;;;;;;8.60;7.80;;;;;;;19.86;78.71;156468.19;5035253;28;20455;-87
2023/06/11 00:28:30;;;;;;;8.60;7.80;;;;;;;19.79;79.64;156451.28;5059089;28;20486;-87
2023/06/11 00:30:57;;;;;;;8.77;7.93;;;;;;;19.68;80.30;156422.56;5061195;28;20989;-87
2023/06/11 00:33:25;;;;;;;9.23;8.33;;;;;;;19.65;80.75;156413.44;5046462;28;20477;-87
2023/06/11 00:35:53;;;;;;;10.57;8.97;;;;;;;19.58;81.16;156396.50;5045054;28;20490;-86
2023/06/11 00:38:20;;;;;;;8.53;7.73;;;;;;;19.55;81.82;156387.38;5047869;28;20500;-87
2023/06/11 00:40:46;;;;;;;8.87;8.07;;;;;;;19.55;81.81;156388.69;5043322;28;20455;-87
2023/06/11 00:43:13;;;;;;;8.83;8.03;;;;;;;19.51;81.93;156376.97;5062195;28;20455;-87
2023/06/11 00:45:41;;;;;;;8.73;8.00;;;;;;;19.55;82.08;156387.38;5023514;28;20451;-87
2023/06/11 00:48:07;;;;;;;10.10;9.00;;;;;;;19.52;82.54;156379.53;5064034;28;20599;-87
2023/06/11 00:50:45;;;;;;;9.50;8.67;;;;;;;19.46;83.16;156363.94;5029454;28;20554;-87
2023/06/11 00:53:13;;;;;;;8.87;8.07;;;;;;;19.40;83.43;156349.59;5049709;28;20475;-87
2023/06/11 00:55:40;;;;;;;9.90;8.97;;;;;;;19.52;83.21;156379.53;5028527;28;20450;-87
2023/06/11 00:58:13;;;;;;;10.30;9.30;;;;;;;19.47;83.50;156367.81;5058510;28;20791;-87
2023/06/11 01:00:42;;;;;;;9.43;8.50;;;;;;;19.33;83.88;156331.25;5048430;28;20458;-87
2023/06/11 01:03:12;;;;;;;9.63;8.73;;;;;;;19.33;84.17;156332.56;5044222;28;20458;-87
2023/06/11 01:05:43;;;;;;;8.87;7.97;;;;;;;19.33;84.24;156332.56;5045546;28;20817;-87
2023/06/11 01:08:13;;;;;;;9.67;8.43;;;;;;;19.29;84.49;156320.84;5059156;28;20969;-87
2023/06/11 01:10:42;;;;;;;8.83;7.93;;;;;;;19.29;84.58;156322.16;5055924;28;20468;-87
2023/06/11 01:13:08;;;;;;;9.13;8.30;;;;;;;19.29;84.86;156320.84;5051504;28;20443;-87
2023/06/11 01:15:35;;;;;;;9.33;8.43;;;;;;;19.28;84.70;156319.53;5029293;28;20830;-87
2023/06/11 01:18:06;;;;;;;10.03;9.03;;;;;;;19.26;84.78;156314.34;5028129;28;20470;-87
2023/06/11 01:20:35;;;;;;;9.60;8.70;;;;;;;19.20;85.19;156298.69;5022455;28;20586;-87
2023/06/11 01:23:33;;;;;;;9.07;8.17;;;;;;;19.19;85.11;156294.81;5027599;28;20964;-87
2023/06/11 01:26:19;;;;;;;10.40;9.50;;;;;;;19.16;85.62;156286.97;5042086;28;20455;-87
2023/06/11 01:28:47;;;;;;;9.03;8.13;;;;;;;19.16;85.72;156286.97;5045542;28;20487;-87
2023/06/11 01:31:15;;;;;;;8.87;7.97;;;;;;;19.15;85.81;156285.66;5063019;28;20450;-87
2023/06/11 01:33:42;;;;;;;9.80;8.90;;;;;;;19.16;85.82;156288.28;5047745;28;20475;-87
2023/06/11 01:36:11;;;;;;;10.30;8.90;;;;;;;19.19;85.60;156294.81;5044649;28;20506;-87
2023/06/11 01:38:42;;;;;;;14.40;9.07;;;;;;;19.21;85.56;156301.31;5024426;28;20462;-87
2023/06/11 01:41:14;;;;;;;10.13;9.17;;;;;;;19.16;85.48;156288.28;5024338;28;20520;-87
2023/06/11 01:43:42;;;;;;;9.67;8.67;;;;;;;19.16;85.82;156288.28;5027445;28;20451;-88
2023/06/11 01:46:10;;;;;;;9.73;8.73;;;;;;;19.15;86.26;156284.34;5037663;28;20550;-87
2023/06/11 01:48:37;;;;;;;10.20;9.20;;;;;;;19.07;86.41;156264.81;5019973;28;20455;-87
2023/06/11 01:51:03;;;;;;;9.50;8.60;;;;;;;19.08;86.58;156266.13;5045302;28;20498;-88
2023/06/11 01:53:30;;;;;;;7.87;7.17;;;;;;;19.02;86.83;156251.78;5035174;28;20552;-87
2023/06/11 01:55:58;;;;;;;10.13;9.23;;;;;;;19.01;86.88;156249.16;5062515;28;21205;-87
2023/06/11 01:58:25;;;;;;;9.07;8.17;;;;;;;19.05;86.69;156259.59;5030099;28;20462;-87
2023/06/11 02:00:53;;;;;;;9.13;8.10;;;;;;;19.07;86.54;156264.81;5063028;28;20455;-87
2023/06/11 02:03:21;;;;;;;8.80;7.90;;;;;;;19.02;86.62;156251.78;5053186;28;20482;-87
2023/06/11 02:05:47;;;;;;;9.13;8.23;;;;;;;19.05;86.55;156258.28;5041495;28;21116;-87
2023/06/11 02:08:14;;;;;;;9.37;8.47;;;;;;;19.03;86.60;156253.09;5063224;28;20455;-87
2023/06/11 02:10:41;;;;;;;10.10;9.20;;;;;;;18.97;86.62;156238.75;5053655;28;20912;-87
2023/06/11 02:13:07;;;;;;;9.63;8.63;;;;;;;18.95;86.92;156232.25;5051859;28;20559;-87
2023/06/11 02:15:34;;;;;;;9.80;8.27;;;;;;;18.93;87.08;156227.03;5043710;28;20479;-87
2023/06/11 02:18:01;;;;;;;9.23;8.43;;;;;;;18.94;86.86;156230.94;5061209;28;20528;-87
2023/06/11 02:20:29;;;;;;;8.67;7.83;;;;;;;18.96;86.61;156236.13;5056394;28;20564;-87
2023/06/11 02:22:56;;;;;;;8.83;7.90;;;;;;;19.02;86.25;156251.78;5045019;28;20795;-87
2023/06/11 02:25:22;;;;;;;8.93;8.13;;;;;;;18.97;86.31;156238.75;5039918;28;20454;-87
2023/06/11 02:27:50;;;;;;;8.90;8.10;;;;;;;18.82;86.82;156200.94;5064808;28;20486;-87
2023/06/11 02:30:17;;;;;;;8.43;7.63;;;;;;;18.82;86.81;156199.69;5041811;28;20506;-87
2023/06/11 02:32:45;;;;;;;9.23;8.40;;;;;;;18.77;86.84;156186.66;5061748;28;20560;-87
2023/06/11 02:35:12;;;;;;;9.17;8.30;;;;;;;18.73;87.11;156176.22;5047319;28;21023;-87
2023/06/11 02:37:40;;;;;;;8.23;7.50;;;;;;;18.69;87.30;156167.06;5049916;28;20508;-86
2023/06/11 02:40:08;;;;;;;8.33;7.63;;;;;;;18.61;87.39;156144.97;5045983;28;20452;-87
2023/06/11 02:42:35;;;;;;;9.23;8.37;;;;;;;18.60;87.45;156143.66;5045977;28;20458;-87
2023/06/11 02:45:01;;;;;;;9.40;7.93;;;;;;;18.55;87.68;156129.31;5063524;28;20458;-87
2023/06/11 02:47:28;;;;;;;9.10;8.20;;;;;;;18.54;87.72;156126.69;5062563;28;20455;-87
2023/06/11 02:49:54;;;;;;;8.93;8.10;;;;;;;18.57;87.97;156134.53;5064971;28;20522;-86
2023/06/11 02:52:21;;;;;;;11.07;8.77;;;;;;;18.56;87.75;156131.94;5045306;28;20455;-86
2023/06/11 02:54:49;;;;;;;9.93;8.40;;;;;;;18.60;87.35;156143.66;5043567;28;20598;-86
2023/06/11 02:57:15;;;;;;;8.20;7.40;;;;;;;18.59;87.08;156139.72;5051607;28;20450;-86
2023/06/11 02:59:42;;;;;;;8.33;7.53;;;;;;;18.55;87.23;156129.31;5073166;28;20806;-86
2023/06/11 03:02:09;;;;;;;9.60;8.70;;;;;;;18.51;87.27;156120.19;5070709;28;20452;-86
2023/06/11 03:04:36;;;;;;;7.83;7.10;;;;;;;18.52;87.30;156121.50;5046026;28;20893;-86
2023/06/11 03:07:03;;;;;;;8.63;7.77;;;;;;;18.52;87.42;156122.81;5031155;28;20458;-86
2023/06/11 03:09:30;;;;;;;7.90;7.20;;;;;;;18.53;87.31;156124.13;5065133;28;20787;-86
2023/06/11 03:11:58;;;;;;;7.93;7.13;;;;;;;18.52;87.01;156121.50;5047531;28;20463;-86
2023/06/11 03:14:26;;;;;;;8.10;7.33;;;;;;;18.43;87.64;156097.97;5063425;28;20490;-86
2023/06/11 03:16:52;;;;;;;9.27;7.97;;;;;;;18.41;87.73;156094.09;5062018;28;20494;-86
2023/06/11 03:19:19;;;;;;;8.57;7.83;;;;;;;18.39;87.88;156087.59;5061813;28;20550;-86
2023/06/11 03:21:47;;;;;;;7.80;7.10;;;;;;;18.39;87.74;156088.88;5046480;28;20821;-87
2023/06/11 03:24:14;;;;;;;8.17;7.47;;;;;;;18.34;88.11;156075.88;5046384;28;21041;-87
2023/06/11 03:26:41;;;;;;;9.27;8.30;;;;;;;18.29;88.28;156061.53;5044056;28;20471;-86
2023/06/11 03:29:09;;;;;;;8.03;7.30;;;;;;;18.27;88.39;156058.91;5040984;28;21072;-86
2023/06/11 03:31:44;;;;;;;7.93;7.20;;;;;;;18.26;88.17;156055.03;5043517;28;20538;-86
2023/06/11 03:34:11;;;;;;;8.70;7.90;;;;;;;18.31;88.27;156066.75;5060592;28;20489;-86
2023/06/11 03:36:38;;;;;;;8.10;7.30;;;;;;;18.35;87.96;156078.44;5061458;28;21053;-87
2023/06/11 03:39:09;;;;;;;10.63;8.73;;;;;;;18.38;87.97;156086.28;5045941;28;20440;-87
2023/06/11 03:41:36;;;;;;;8.10;7.40;;;;;;;18.35;87.79;156077.19;5064095;28;20463;-86
2023/06/11 03:44:04;;;;;;;8.33;7.43;;;;;;;18.39;87.97;156087.59;5044530;28;20448;-87
2023/06/11 03:46:32;;;;;;;8.13;7.43;;;;;;;18.35;87.82;156077.19;5063033;28;20482;-87
2023/06/11 03:48:59;;;;;;;8.00;7.30;;;;;;;18.31;88.11;156068.06;5039576;28;20471;-87
2023/06/11 03:51:26;;;;;;;8.17;7.47;;;;;;;18.27;88.32;156058.91;5029592;28;20829;-86
2023/06/11 03:53:53;;;;;;;7.93;7.23;;;;;;;18.31;88.03;156068.06;5028108;28;20448;-87
2023/06/11 03:56:19;;;;;;;9.43;7.93;;;;;;;18.31;88.11;156066.75;5039848;28;20448;-87
2023/06/11 03:58:46;;;;;;;7.90;7.20;;;;;;;18.32;88.10;156069.38;5043426;28;20451;-87
2023/06/11 04:01:13;;;;;;;8.37;7.47;;;;;;;18.37;87.86;156082.38;5047965;28;21020;-87
2023/06/11 04:03:41;;;;;;;8.63;7.67;;;;;;;18.38;87.76;156086.28;5042481;28;20545;-86
2023/06/11 04:06:07;;;;;;;9.40;8.50;;;;;;;18.42;87.97;156096.72;5047485;28;20534;-87
2023/06/11 04:08:34;;;;;;;9.83;8.77;;;;;;;18.50;87.98;156116.31;5045943;28;20471;-87
2023/06/11 04:11:01;;;;;;;8.60;7.80;;;;;;;18.65;86.94;156155.38;5046018;28;20962;-86
2023/06/11 04:13:27;;;;;;;8.07;7.23;;;;;;;18.82;86.41;156199.69;5061422;28;20497;-86
2023/06/11 04:15:54;;;;;;;7.80;7.10;;;;;;;18.95;85.93;156232.25;5042012;28;20487;-86
2023/06/11 04:18:21;;;;;;;8.77;7.97;;;;;;;19.08;84.96;156266.13;5046741;28;20494;-87
2023/06/11 04:20:52;;;;;;;8.43;7.70;;;;;;;19.23;84.43;156306.53;5045401;28;20532;-87
2023/06/11 04:23:20;;;;;;;9.70;8.30;;;;;;;19.41;83.95;156353.47;5061697;28;20459;-87
2023/06/11 04:26:15;;;;;;;8.80;8.00;;;;;;;19.56;82.53;156391.31;5042735;28;20554;-87
2023/06/11 04:28:44;;;;;;;7.53;6.73;;;;;;;19.70;82.69;156426.47;5052587;28;20520;-87
2023/06/11 04:31:12;;;;;;;8.00;7.30;;;;;;;19.84;81.50;156463.00;5043749;28;20996;-87
2023/06/11 04:33:40;;;;;;;9.00;8.10;;;;;;;20.01;79.98;156507.34;5029666;28;20450;-87
2023/06/11 04:36:09;;;;;;;8.03;7.30;;;;;;;19.98;80.28;156500.81;5046024;28;20490;-87
2023/06/11 04:38:37;;;;;;;8.10;7.40;;;;;;;20.02;80.32;156509.91;5063868;28;20851;-87
2023/06/11 04:41:05;;;;;;;8.57;7.77;;;;;;;20.12;78.99;156536.00;5059183;28;20455;-87
2023/06/11 04:43:34;;;;;;;7.60;6.90;;;;;;;20.22;78.83;156560.81;5029012;28;20468;-87
2023/06/11 04:46:03;;;;;;;9.30;8.33;;;;;;;20.32;78.28;156586.94;5043416;28;20462;-84
2023/06/11 04:48:32;;;;;;;8.47;7.47;;;;;;;20.37;78.65;156601.28;5064449;28;20527;-88
2023/06/11 04:51:04;;;;;;;8.30;7.60;;;;;;;20.44;77.30;156619.53;5023913;28;20501;-87
2023/06/11 04:53:38;;;;;;;8.50;7.80;;;;;;;20.54;76.90;156645.59;5026237;28;20439;-87
2023/06/11 04:56:06;;;;;;;8.60;7.80;;;;;;;20.62;77.27;156665.22;5062498;28;20475;-86
2023/06/11 04:58:37;;;;;;;8.50;7.70;;;;;;;20.82;76.42;156717.38;5041530;28;20540;-85
2023/06/11 05:01:07;;;;;;;8.20;7.50;;;;;;;20.95;75.65;156750.00;5051411;28;20455;-86
2023/06/11 05:03:37;;;;;;;9.07;8.20;;;;;;;21.09;75.03;156786.59;5047791;28;20443;-87
2023/06/11 05:06:05;;;;;;;7.70;6.90;;;;;;;21.19;73.17;156812.69;5028684;28;20494;-87
2023/06/11 05:08:34;;;;;;;7.77;7.07;;;;;;;21.07;73.93;156781.38;5025015;28;20467;-87
2023/06/11 05:11:03;;;;;;;8.90;8.00;;;;;;;20.98;74.13;156759.13;5054015;28;21017;-86
2023/06/11 05:13:32;;;;;;;8.50;7.80;;;;;;;21.06;74.69;156778.69;5065401;28;20461;-87
2023/06/11 05:16:03;;;;;;;7.90;7.20;;;;;;;21.22;74.17;156820.53;5045191;28;20467;-86
2023/06/11 05:18:30;;;;;;;8.07;7.37;;;;;;;21.15;74.24;156802.25;5059048;28;20447;-87
2023/06/11 05:21:00;;;;;;;8.30;7.60;;;;;;;21.24;73.85;156825.72;5040977;28;20508;-87
2023/06/11 05:23:29;;;;;;;8.90;8.10;;;;;;;21.33;72.63;156849.25;5041467;28;20451;-87
2023/06/11 05:26:01;;;;;;;8.23;7.53;;;;;;;21.51;73.11;156896.22;5060759;28;20481;-87
2023/06/11 05:28:29;;;;;;;9.70;7.63;;;;;;;21.65;71.83;156932.78;5028535;28;20471;-87
2023/06/11 05:30:56;;;;;;;7.70;6.90;;;;;;;21.78;71.62;156966.75;5002975;28;20495;-87
2023/06/11 05:33:26;;;;;;;9.00;7.20;;;;;;;21.68;71.20;156940.59;5013853;28;20495;-87
2023/06/11 05:35:53;;;;;;;8.73;8.03;;;;;;;21.87;70.64;156987.69;5023452;28;20727;-87
2023/06/11 05:38:20;;;;;;;8.10;7.50;;;;;;;22.08;69.70;157042.53;5004052;28;20465;-87
2023/06/11 05:40:46;;;;;;;9.00;8.03;;;;;;;22.23;68.91;157083.00;5021098;28;20452;-88
2023/06/11 05:43:13;;;;;;;9.87;8.10;;;;;;;22.43;68.39;157133.91;5040496;28;20452;-87
2023/06/11 05:45:48;;;;;;;7.67;7.07;;;;;;;22.77;67.40;157222.78;5005613;28;20456;-88
2023/06/11 05:48:16;;;;;;;8.83;7.93;;;;;;;22.91;66.56;157259.38;5007017;28;20501;-88
2023/06/11 05:50:43;;;;;;;8.60;7.80;;;;;;;22.80;66.16;157229.31;5022286;28;20570;-88
2023/06/11 05:53:10;;;;;;;8.70;7.83;;;;;;;22.70;66.50;157203.19;5038324;28;20853;-88
2023/06/11 05:55:39;;;;;;;8.20;7.40;;;;;;;22.74;67.28;157214.94;5020477;28;20997;-87
2023/06/11 05:58:07;;;;;;;7.07;6.47;;;;;;;22.93;66.19;157263.28;5021941;28;20822;-88
2023/06/11 06:00:33;;;;;;;8.13;7.30;;;;;;;23.00;65.50;157282.94;5019923;28;20813;-88
2023/06/11 06:03:03;;;;;;;8.23;7.53;;;;;;;23.12;65.39;157311.63;5003764;28;20748;-89
2023/06/11 06:05:31;;;;;;;9.30;8.50;;;;;;;22.89;65.18;157254.16;5003901;28;20466;-89
2023/06/11 06:07:58;;;;;;;8.40;7.60;;;;;;;23.01;65.42;157284.19;5039385;28;20448;-89
2023/06/11 06:10:25;;;;;;;7.97;7.27;;;;;;;23.34;64.64;157369.16;5023596;28;20459;-87
2023/06/11 06:12:52;;;;;;;8.80;7.97;;;;;;;23.37;63.85;157377.06;5039830;28;20459;-88
2023/06/11 06:15:19;;;;;;;10.20;7.27;;;;;;;23.30;64.31;157358.72;5003010;28;20881;-88
2023/06/11 06:17:46;;;;;;;9.23;8.40;;;;;;;23.37;63.35;157377.06;5002394;28;21025;-88
2023/06/11 06:20:21;;;;;;;8.80;8.07;;;;;;;23.35;63.97;157371.78;5022115;28;20537;-89
2023/06/11 06:22:47;;;;;;;8.30;7.60;;;;;;;23.04;64.35;157293.34;5020901;28;20456;-88
2023/06/11 06:25:15;;;;;;;8.20;7.50;;;;;;;23.12;64.58;157312.94;5002049;28;20458;-89
2023/06/11 06:27:43;;;;;;;8.20;7.50;;;;;;;23.01;63.59;157285.50;5021678;28;20878;-88
2023/06/11 06:30:12;;;;;;;8.73;7.90;;;;;;;23.22;63.92;157337.81;5054161;28;20491;-88
2023/06/11 06:32:39;;;;;;;8.40;7.60;;;;;;;23.59;63.22;157434.53;5040018;28;20902;-87
2023/06/11 06:35:08;;;;;;;8.17;7.47;;;;;;;23.80;63.05;157489.44;5026008;28;20470;-88
2023/06/11 06:37:37;;;;;;;9.00;8.20;;;;;;;23.73;61.79;157471.16;5023783;28;20446;-89
2023/06/11 06:40:04;;;;;;;9.20;8.40;;;;;;;23.52;61.63;157416.25;5043653;28;20462;-89
2023/06/11 06:42:32;;;;;;;8.97;8.27;;;;;;;23.53;62.70;157418.88;5028624;28;20463;-89
2023/06/11 06:45:02;;;;;;;8.40;7.70;;;;;;;23.63;62.17;157445.03;5063876;28;20582;-90
2023/06/11 06:47:29;;;;;;;8.30;7.60;;;;;;;23.70;61.53;157463.31;5047878;28;20451;-90
2023/06/11 06:49:55;;;;;;;9.10;8.30;;;;;;;23.56;61.84;157426.75;5049414;28;20879;-90
2023/06/11 06:52:22;;;;;;;8.80;8.00;;;;;;;23.65;61.41;157450.25;5046537;28;20463;-88
2023/06/11 06:54:51;;;;;;;8.27;7.47;;;;;;;23.82;60.61;157493.41;5031572;28;20470;-90
2023/06/11 06:57:18;;;;;;;9.17;8.37;;;;;;;24.10;59.83;157566.66;5060261;28;20459;-89
2023/06/11 06:59:45;;;;;;;8.30;7.57;;;;;;;24.27;58.79;157611.13;5061703;28;21427;-90
2023/06/11 07:02:13;;;;;;;7.50;6.90;;;;;;;24.07;59.35;157560.06;5022724;28;20490;-89
2023/06/11 07:04:42;;;;;;;8.37;7.63;;;;;;;24.11;59.60;157569.28;5037825;28;20463;-90
2023/06/11 07:07:09;;;;;;;8.93;8.13;;;;;;;23.66;60.05;157452.88;5023926;28;20641;-90
2023/06/11 07:09:36;;;;;;;9.47;8.50;;;;;;;23.51;60.98;157414.94;5028442;28;20469;-87
2023/06/11 07:12:06;;;;;;;8.00;7.37;;;;;;;23.98;60.24;157536.56;5044699;28;20578;-81
2023/06/11 07:14:33;;;;;;;8.00;7.30;;;;;;;24.17;60.10;157586.25;5029229;28;20463;-88
2023/06/11 07:17:00;;;;;;;9.30;8.40;;;;;;;24.20;58.53;157594.09;5046002;28;20532;-89
2023/06/11 07:19:28;;;;;;;8.40;7.70;;;;;;;24.20;59.87;157594.09;5029655;28;20470;-88
2023/06/11 07:21:55;;;;;;;9.37;8.57;;;;;;;24.30;58.34;157619.00;5050026;28;21083;-89
2023/06/11 07:24:21;;;;;;;8.87;8.07;;;;;;;24.17;58.50;157586.25;5060150;28;20454;-90
2023/06/11 07:26:48;;;;;;;7.73;7.03;;;;;;;24.14;58.16;157578.47;5034684;28;20455;-89
2023/06/11 07:29:17;;;;;;;8.93;7.80;;;;;;;24.30;57.65;157617.66;5043320;28;20491;-90
2023/06/11 07:31:44;;;;;;;9.37;8.30;;;;;;;24.35;57.90;157630.75;5049308;28;20594;-90
2023/06/11 07:34:10;;;;;;;7.93;7.30;;;;;;;24.64;57.45;157707.94;5039694;28;20465;-89
2023/06/11 07:36:38;;;;;;;8.93;8.23;;;;;;;24.86;56.54;157762.94;5065865;28;20468;-89
2023/06/11 07:39:06;;;;;;;8.43;7.73;;;;;;;24.78;55.91;157743.25;5028438;28;20542;-88
2023/06/11 07:41:34;;;;;;;9.13;8.23;;;;;;;25.01;55.72;157802.16;5044255;28;20548;-89
2023/06/11 07:44:00;;;;;;;8.30;7.50;;;;;;;24.90;53.97;157774.69;5048883;28;20469;-89
2023/06/11 07:46:28;;;;;;;7.83;7.03;;;;;;;24.67;54.81;157714.47;5031719;28;20459;-91
2023/06/11 07:48:55;;;;;;;8.50;7.80;;;;;;;24.77;54.56;157740.63;5045855;28;20459;-89
2023/06/11 07:51:23;;;;;;;8.47;7.67;;;;;;;24.82;53.73;157753.75;5065284;28;20458;-90
2023/06/11 07:53:58;;;;;;;8.07;7.30;;;;;;;25.02;52.51;157806.06;5047001;28;20984;-89
2023/06/11 07:56:26;;;;;;;7.97;6.87;;;;;;;25.13;51.99;157834.84;5031094;28;20474;-90
2023/06/11 07:58:53;;;;;;;8.33;7.53;;;;;;;25.42;51.02;157909.44;5026966;28;20566;-90
2023/06/11 08:01:20;;;;;;;8.13;7.43;;;;;;;25.60;50.22;157955.34;5060046;28;20476;-90
2023/06/11 08:03:48;;;;;;;7.17;6.60;;;;;;;25.61;49.13;157959.25;5028569;28;20466;-90
2023/06/11 08:06:15;;;;;;;7.97;7.30;;;;;;;25.56;48.48;157944.84;5027220;28;20806;-90
2023/06/11 08:08:41;;;;;;;9.80;7.20;;;;;;;25.23;48.82;157861.03;5059793;28;20520;-92
2023/06/11 08:11:08;;;;;;;7.10;6.47;;;;;;;24.96;49.85;157790.41;5026106;28;20454;-91
2023/06/11 08:13:35;;;;;;;7.63;6.93;;;;;;;24.77;49.25;157741.94;5024055;28;20451;-91
2023/06/11 08:16:02;;;;;;;7.10;6.50;;;;;;;24.78;50.26;157744.56;5045235;28;20487;-91
2023/06/11 08:18:29;;;;;;;8.80;7.90;;;;;;;24.59;50.25;157694.84;5028366;28;20454;-91
2023/06/11 08:20:58;;;;;;;7.60;6.90;;;;;;;24.72;49.97;157728.88;5043214;28;20484;-90
2023/06/11 08:23:25;;;;;;;7.77;7.07;;;;;;;25.12;49.71;157832.28;5058082;28;20459;-90
2023/06/11 08:25:52;;;;;;;8.07;7.20;;;;;;;25.37;49.10;157897.69;5061630;28;20474;-90
2023/06/11 08:28:19;;;;;;;8.07;7.37;;;;;;;25.81;48.13;158011.63;5060352;28;20474;-90
2023/06/11 08:30:46;;;;;;;6.97;6.37;;;;;;;25.85;47.08;158020.78;5041576;28;20545;-91
2023/06/11 08:33:13;;;;;;;11.53;7.60;;;;;;;25.56;47.50;157944.84;5022819;28;20466;-79
2023/06/11 08:35:39;;;;;;;8.33;7.60;;;;;;;25.47;47.79;157921.31;5039186;28;20483;-79
2023/06/11 08:38:07;;;;;;;8.07;7.47;;;;;;;25.65;47.87;157968.44;5040314;28;20466;-79
2023/06/11 08:40:40;;;;;;;8.07;7.37;;;;;;;25.84;47.29;158018.19;5042156;28;20483;-79
2023/06/11 08:43:07;;;;;;;7.83;7.23;;;;;;;25.72;47.89;157986.72;5043127;28;20458;-79
2023/06/11 08:45:33;;;;;;;8.60;7.80;;;;;;;25.82;47.47;158012.91;5041429;28;20500;-79
2023/06/11 08:48:02;;;;;;;7.33;6.73;;;;;;;25.33;48.74;157887.22;5040623;28;20451;-79
2023/06/11 08:50:31;;;;;;;8.00;7.30;;;;;;;25.49;48.10;157926.53;5059774;28;20474;-79
2023/06/11 08:53:00;;;;;;;7.80;7.00;;;;;;;25.85;47.30;158020.78;5043554;28;20516;-79
2023/06/11 08:55:29;;;;;;;8.97;8.27;;;;;;;26.14;45.76;158096.75;5054329;28;20451;-79
2023/06/11 08:57:55;;;;;;;7.53;6.83;;;;;;;26.07;47.23;158078.41;5060907;28;20528;-79
2023/06/11 09:00:27;;;;;;;7.70;7.10;;;;;;;26.28;45.18;158132.13;5058289;28;20812;-79
2023/06/11 09:02:53;;;;;;;7.47;6.77;;;;;;;26.10;44.94;158084.94;5058106;28;20438;-79
2023/06/11 09:05:21;;;;;;;7.47;6.77;;;;;;;25.96;45.24;158049.59;5040961;28;21103;-79
2023/06/11 09:07:51;;;;;;;7.37;6.77;;;;;;;25.96;44.43;158049.59;5041966;28;20530;-79
2023/06/11 09:10:18;;;;;;;8.10;7.40;;;;;;;26.19;44.15;158109.84;5043410;28;20481;-79
2023/06/11 09:12:46;;;;;;;7.50;6.93;;;;;;;26.23;43.97;158119.03;5041698;28;20467;-79
2023/06/11 09:15:13;;;;;;;7.63;7.03;;;;;;;26.33;44.59;158145.22;5043525;28;20497;-79
2023/06/11 09:17:41;;;;;;;8.00;7.40;;;;;;;26.51;43.69;158192.34;5049492;28;20472;-79
2023/06/11 09:20:09;;;;;;;7.37;6.77;;;;;;;26.59;42.89;158214.63;5040439;28;20458;-79
2023/06/11 09:22:37;;;;;;;7.43;6.70;;;;;;;26.19;42.45;158109.84;5042572;28;20464;-79
2023/06/11 09:25:05;;;;;;;7.37;6.77;;;;;;;26.21;41.84;158115.06;5058099;28;21032;-79
2023/06/11 09:27:32;;;;;;;7.87;7.17;;;;;;;26.21;42.90;158115.06;5044220;28;20450;-79
2023/06/11 09:30:08;;;;;;;7.93;7.33;;;;;;;26.40;42.56;158163.53;5039796;28;20493;-79
2023/06/11 09:32:38;;;;;;;7.33;6.73;;;;;;;26.46;42.38;158180.56;5041601;28;20808;-79
2023/06/11 09:35:06;;;;;;;7.97;7.17;;;;;;;26.27;43.52;158129.47;5040013;28;20455;-79
2023/06/11 09:37:39;;;;;;;7.70;7.10;;;;;;;26.52;42.74;158195.00;5040133;28;20528;-79
2023/06/11 09:40:09;;;;;;;7.20;6.60;;;;;;;26.44;42.41;158175.34;5058291;28;20534;-78
2023/06/11 09:42:36;;;;;;;7.57;6.87;;;;;;;26.42;42.27;158170.06;5059297;28;20516;-79
2023/06/11 09:45:03;;;;;;;8.83;7.10;;;;;;;26.63;42.21;158225.09;5059938;28;20516;-79
2023/06/11 09:47:32;;;;;;;7.47;6.87;;;;;;;26.61;42.18;158219.84;5058534;28;20568;-79
2023/06/11 09:49:59;;;;;;;7.73;7.13;;;;;;;26.54;41.80;158201.53;5041176;28;20454;-79
2023/06/11 09:52:26;;;;;;;7.63;6.93;;;;;;;26.22;41.97;158116.38;5043483;28;20447;-79
2023/06/11 09:54:53;;;;;;;8.00;7.30;;;;;;;26.41;42.58;158167.47;5057057;28;20516;-79
2023/06/11 09:57:20;;;;;;;7.43;6.90;;;;;;;26.59;41.40;158213.31;5041213;28;20480;-79
2023/06/11 09:59:47;;;;;;;8.13;7.43;;;;;;;26.03;42.56;158067.88;5042166;28;20561;-79
2023/06/11 10:02:14;;;;;;;8.20;7.50;;;;;;;25.73;42.01;157989.38;5041996;28;20461;-79
2023/06/11 10:04:44;;;;;;;8.73;7.90;;;;;;;25.76;41.56;157997.22;5058016;28;20464;-79
2023/06/11 10:07:11;;;;;;;7.87;7.27;;;;;;;26.06;41.12;158075.75;5044097;28;20446;-79
2023/06/11 10:09:39;;;;;;;7.53;6.83;;;;;;;26.16;41.28;158100.72;5055526;28;20458;-79
2023/06/11 10:12:15;;;;;;;9.73;7.60;;;;;;;26.18;41.25;158107.25;5044005;28;20508;-79
2023/06/11 10:14:43;;;;;;;8.40;7.70;;;;;;;26.02;40.23;158065.31;5047183;28;20461;-79
2023/06/11 10:17:16;;;;;;;7.67;6.97;;;;;;;25.68;40.52;157976.28;5060246;28;20475;-79
2023/06/11 10:19:48;;;;;;;7.97;7.23;;;;;;;25.59;42.43;157952.69;5047535;28;20450;-79
2023/06/11 10:22:14;;;;;;;8.40;7.60;;;;;;;25.61;43.02;157957.94;5046643;28;20490;-79
2023/06/11 10:24:41;;;;;;;9.87;7.47;;;;;;;25.70;43.64;157981.50;5062235;28;20463;-79
2023/06/11 10:27:10;;;;;;;8.67;7.17;;;;;;;26.06;41.93;158075.75;5047181;28;20442;-79
2023/06/11 10:29:38;;;;;;;8.53;7.87;;;;;;;25.80;41.98;158007.69;5062875;28;20566;-79
2023/06/11 10:32:14;;;;;;;9.13;8.17;;;;;;;25.81;41.57;158010.31;5063932;28;20803;-80
2023/06/11 10:34:41;;;;;;;8.80;8.10;;;;;;;25.74;42.18;157993.28;5047064;28;20501;-79
2023/06/11 10:37:10;;;;;;;10.57;8.60;;;;;;;25.86;43.01;158023.41;5062807;28;20481;-79
2023/06/11 10:39:36;;;;;;;8.23;7.53;;;;;;;26.05;42.78;158073.16;5061751;28;20893;-79
2023/06/11 10:42:05;;;;;;;8.20;7.50;;;;;;;26.35;42.90;158151.75;5044692;28;20459;-79
2023/06/11 10:44:32;;;;;;;8.20;7.40;;;;;;;26.59;41.57;158214.63;5062323;28;20447;-79
2023/06/11 10:47:01;;;;;;;7.80;7.20;;;;;;;26.49;41.33;158188.44;5028686;28;20446;-79
2023/06/11 10:49:28;;;;;;;8.00;7.27;;;;;;;26.41;40.64;158167.47;5063681;28;20452;-80
2023/06/11 10:51:55;;;;;;;7.77;7.10;;;;;;;26.26;40.25;158126.88;5047795;28;20485;-79
2023/06/11 10:54:27;;;;;;;8.40;7.60;;;;;;;25.86;41.25;158024.72;5062387;28;20839;-79
2023/06/11 10:56:55;;;;;;;8.07;7.37;;;;;;;26.06;42.07;158074.44;5047725;28;20486;-79
2023/06/11 10:59:21;;;;;;;8.97;8.27;;;;;;;26.20;41.45;158112.47;5062791;28;20552;-79
2023/06/11 11:01:48;;;;;;;7.97;7.27;;;;;;;26.43;40.78;158172.72;5045164;28;20446;-83
2023/06/11 11:04:14;;;;;;;7.57;6.97;;;;;;;26.26;41.01;158128.22;5045786;28;20520;-82
2023/06/11 11:06:43;;;;;;;8.47;7.67;;;;;;;26.16;40.30;158100.72;5046712;28;20457;-82
2023/06/11 11:09:11;;;;;;;9.30;8.53;;;;;;;26.27;39.52;158130.81;5061103;28;21076;-82
2023/06/11 11:12:07;;;;;;;9.40;8.50;;;;;;;26.30;39.80;158137.34;5046267;28;21052;-83
2023/06/11 11:14:51;;;;;;;8.43;7.73;;;;;;;26.22;40.11;158117.72;5044657;28;20450;-83
2023/06/11 11:17:17;;;;;;;9.00;7.97;;;;;;;26.34;41.17;158149.16;5062861;28;20485;-82
2023/06/11 11:19:44;;;;;;;9.07;8.37;;;;;;;26.42;41.07;158170.06;5059907;28;20467;-82
2023/06/11 11:22:12;;;;;;;8.30;7.60;;;;;;;26.55;39.83;158204.19;5045769;28;20966;-82
2023/06/11 11:24:39;;;;;;;9.90;8.40;;;;;;;26.61;40.14;158219.84;5063081;28;21123;-83
2023/06/11 11:27:07;;;;;;;9.03;8.23;;;;;;;26.20;40.34;158112.47;5065709;28;20447;-83
2023/06/11 11:29:34;;;;;;;8.30;7.70;;;;;;;25.99;40.57;158057.44;5042181;28;20887;-82